createdAt,value
2023-02-14T00:01:31.006Z,18.13
2023-02-14T00:04:00.930Z,18.73
2023-02-14T00:06:29.785Z,21.03
2023-02-14T00:08:57.447Z,20.60
2023-02-14T00:11:25.128Z,19.67
2023-02-14T00:14:11.251Z,19.43
2023-02-14T00:16:38.904Z,17.67
2023-02-14T00:19:06.608Z,19.93
2023-02-14T00:21:39.096Z,21.13
2023-02-14T00:24:10.367Z,19.40
2023-02-14T00:26:41.482Z,17.13
2023-02-14T00:29:11.930Z,19.70
2023-02-14T00:31:40.311Z,18.33
2023-02-14T00:34:09.241Z,19.87
2023-02-14T00:36:37.996Z,17.80
2023-02-14T00:39:07.915Z,19.87
2023-02-14T00:41:39.001Z,18.27
2023-02-14T00:44:07.322Z,20.20
2023-02-14T00:46:35.781Z,19.17
2023-02-14T00:49:03.877Z,16.80
2023-02-14T00:51:32.195Z,17.17
2023-02-14T00:54:08.074Z,19.80
2023-02-14T00:56:35.688Z,17.53
2023-02-14T00:59:03.441Z,18.20
2023-02-14T01:01:31.200Z,19.37
2023-02-14T01:03:59.856Z,17.23
2023-02-14T01:06:27.592Z,18.03
2023-02-14T01:08:55.214Z,19.87
2023-02-14T01:11:25.145Z,17.03
2023-02-14T01:13:55.918Z,17.33
2023-02-14T01:16:26.103Z,15.83
2023-02-14T01:18:54.719Z,18.17
2023-02-14T01:21:41.633Z,17.27
2023-02-14T01:24:10.431Z,16.90
2023-02-14T01:26:38.228Z,17.57
2023-02-14T01:29:06.947Z,18.30
2023-02-14T01:31:35.909Z,16.87
2023-02-14T01:34:04.345Z,17.33
2023-02-14T01:36:43.753Z,17.17
2023-02-14T01:39:13.688Z,19.33
2023-02-14T01:41:43.102Z,18.30
2023-02-14T01:44:19.586Z,18.10
2023-02-14T01:46:47.278Z,18.23
2023-02-14T01:49:18.334Z,18.03
2023-02-14T01:52:04.251Z,21.07
2023-02-14T01:54:35.758Z,19.67
2023-02-14T01:57:08.849Z,19.40
2023-02-14T01:59:41.589Z,18.37
2023-02-14T02:02:12.480Z,19.77
2023-02-14T02:04:46.430Z,21.60
2023-02-14T02:07:20.087Z,20.17
2023-02-14T02:09:57.212Z,19.17
2023-02-14T02:12:25.052Z,24.23
2023-02-14T02:14:55.476Z,23.30
2023-02-14T02:17:50.727Z,21.20
2023-02-14T02:20:59.252Z,22.80
2023-02-14T02:23:52.745Z,23.10
2023-02-14T02:26:45.871Z,22.47
2023-02-14T02:29:28.479Z,24.43
2023-02-14T02:32:02.117Z,23.43
2023-02-14T02:34:57.874Z,24.30
2023-02-14T02:37:49.051Z,24.07
2023-02-14T02:40:34.740Z,23.00
2023-02-14T02:43:17.156Z,26.30
2023-02-14T02:46:28.459Z,38.93
2023-02-14T02:49:09.275Z,27.33
2023-02-14T02:52:12.794Z,27.97
2023-02-14T02:54:49.991Z,30.63
2023-02-14T02:57:29.622Z,29.30
2023-02-14T02:59:59.020Z,25.47
2023-02-14T03:02:58.460Z,25.60
2023-02-14T03:05:28.242Z,27.63
2023-02-14T03:07:55.899Z,26.37
2023-02-14T03:10:27.984Z,23.80
2023-02-14T03:13:19.422Z,24.67
2023-02-14T03:16:35.605Z,22.87
2023-02-14T03:19:40.556Z,21.83
2023-02-14T03:22:37.240Z,21.50
2023-02-14T03:25:16.783Z,25.70
2023-02-14T03:28:01.335Z,23.77
2023-02-14T03:31:14.053Z,22.77
2023-02-14T03:33:47.521Z,22.67
2023-02-14T03:36:18.550Z,23.27
2023-02-14T03:38:59.747Z,23.50
2023-02-14T03:41:33.204Z,25.90
2023-02-14T03:44:07.457Z,27.37
2023-02-14T03:46:52.451Z,26.17
2023-02-14T03:49:27.856Z,35.90
2023-02-14T03:51:58.490Z,35.63
2023-02-14T03:54:28.518Z,29.23
2023-02-14T03:57:19.646Z,30.20
2023-02-14T03:59:48.129Z,28.90
2023-02-14T04:02:21.881Z,29.37
2023-02-14T04:04:51.631Z,33.40
2023-02-14T04:07:21.302Z,27.20
2023-02-14T04:09:49.529Z,26.93
2023-02-14T04:12:26.559Z,31.87
2023-02-14T04:15:00.108Z,26.17
2023-02-14T04:17:46.361Z,24.90
2023-02-14T04:20:16.857Z,24.67
2023-02-14T04:22:46.402Z,26.63
2023-02-14T04:25:15.214Z,26.83
2023-02-14T04:27:43.064Z,26.30
2023-02-14T04:30:12.558Z,26.87
2023-02-14T04:32:41.553Z,25.80
2023-02-14T04:35:09.249Z,35.23
2023-02-14T04:37:40.698Z,26.07
2023-02-14T04:40:09.055Z,23.43
2023-02-14T04:42:39.477Z,23.53
2023-02-14T04:45:07.421Z,23.80
2023-02-14T04:47:35.051Z,25.40
2023-02-14T04:50:03.368Z,23.53
2023-02-14T04:52:33.133Z,25.00
2023-02-14T04:55:01.037Z,25.73
2023-02-14T04:57:32.086Z,24.47
2023-02-14T05:00:01.835Z,24.67
2023-02-14T05:02:29.603Z,24.27
2023-02-14T05:04:57.217Z,25.67
2023-02-14T05:07:24.852Z,24.07
2023-02-14T05:09:52.424Z,23.53
2023-02-14T05:12:20.179Z,24.00
2023-02-14T05:14:47.922Z,23.27
2023-02-14T05:17:15.524Z,24.00
2023-02-14T05:19:43.602Z,25.27
2023-02-14T05:22:11.229Z,28.53
2023-02-14T05:24:39.104Z,26.57
2023-02-14T05:27:07.550Z,25.77
2023-02-14T05:29:35.174Z,23.67
2023-02-14T05:32:05.943Z,25.40
2023-02-14T05:34:33.566Z,27.90
2023-02-14T05:37:04.055Z,25.93
2023-02-14T05:39:34.458Z,26.10
2023-02-14T05:42:02.038Z,27.40
2023-02-14T05:44:30.167Z,25.07
2023-02-14T05:46:57.744Z,27.73
2023-02-14T05:49:25.371Z,26.13
2023-02-14T05:51:52.988Z,25.87
2023-02-14T05:54:20.573Z,27.40
2023-02-14T05:56:48.145Z,27.43
2023-02-14T05:59:15.853Z,28.93
2023-02-14T06:01:43.535Z,31.30
2023-02-14T06:04:11.117Z,34.60
2023-02-14T06:06:41.872Z,25.77
2023-02-14T06:09:09.577Z,26.60
2023-02-14T06:11:37.184Z,26.83
2023-02-14T06:14:04.806Z,28.07
2023-02-14T06:16:32.469Z,24.67
2023-02-14T06:19:00.179Z,24.60
2023-02-14T06:21:29.887Z,25.80
2023-02-14T06:24:00.812Z,26.43
2023-02-14T06:26:31.670Z,25.67
2023-02-14T06:29:02.535Z,23.93
2023-02-14T06:31:42.047Z,25.40
2023-02-14T06:34:09.767Z,26.50
2023-02-14T06:36:40.316Z,26.10
2023-02-14T06:39:07.923Z,25.77
2023-02-14T06:41:35.716Z,23.90
2023-02-14T06:44:03.404Z,25.10
2023-02-14T06:46:31.074Z,25.70
2023-02-14T06:48:58.707Z,24.63
2023-02-14T06:51:26.388Z,23.87
2023-02-14T06:53:54.064Z,26.43
2023-02-14T06:56:21.967Z,22.83
2023-02-14T06:58:49.520Z,26.33
2023-02-14T07:01:17.199Z,24.17
2023-02-14T07:03:44.926Z,25.97
2023-02-14T07:06:12.531Z,26.97
2023-02-14T07:08:40.178Z,26.33
2023-02-14T07:11:08.011Z,25.93
2023-02-14T07:13:35.604Z,28.97
2023-02-14T07:16:03.304Z,26.17
2023-02-14T07:18:33.917Z,29.10
2023-02-14T07:21:04.593Z,27.50
2023-02-14T07:23:32.693Z,27.00
2023-02-14T07:26:00.317Z,27.87
2023-02-14T07:28:29.344Z,26.90
2023-02-14T07:31:03.237Z,27.57
2023-02-14T07:33:31.067Z,27.47
2023-02-14T07:35:59.156Z,26.77
2023-02-14T07:38:30.560Z,28.27
2023-02-14T07:40:58.545Z,27.73
2023-02-14T07:43:26.658Z,28.90
2023-02-14T07:45:58.494Z,27.47
2023-02-14T07:48:26.649Z,29.83
2023-02-14T07:50:57.665Z,28.37
2023-02-14T07:53:25.531Z,27.67
2023-02-14T07:55:53.422Z,26.57
2023-02-14T07:58:21.019Z,23.93
2023-02-14T08:00:49.090Z,26.70
2023-02-14T08:03:17.023Z,23.97
2023-02-14T08:05:56.934Z,26.93
2023-02-14T08:08:29.651Z,24.63
2023-02-14T08:10:57.865Z,30.13
2023-02-14T08:13:25.945Z,30.80
2023-02-14T08:16:05.266Z,34.27
2023-02-14T08:18:38.356Z,47.17
2023-02-14T08:21:10.310Z,30.97
2023-02-14T08:23:38.380Z,32.87
2023-02-14T08:26:06.097Z,35.90
2023-02-14T08:28:34.938Z,33.00
2023-02-14T08:31:07.067Z,34.93
2023-02-14T08:33:34.717Z,37.97
2023-02-14T08:36:02.764Z,30.40
2023-02-14T08:38:30.376Z,37.70
2023-02-14T08:41:05.060Z,38.73
2023-02-14T08:43:34.579Z,39.80
2023-02-14T08:46:02.653Z,41.70
2023-02-14T08:48:30.647Z,41.13
2023-02-14T08:50:58.634Z,41.83
2023-02-14T08:53:26.897Z,44.40
2023-02-14T08:56:01.881Z,49.37
2023-02-14T08:58:30.505Z,54.77
2023-02-14T09:01:00.108Z,47.30
2023-02-14T09:03:28.285Z,57.90
2023-02-14T09:05:55.860Z,59.93
2023-02-14T09:08:23.510Z,59.50
2023-02-14T09:10:55.906Z,59.07
2023-02-14T09:13:23.653Z,60.13
2023-02-14T09:15:51.244Z,54.30
2023-02-14T09:18:18.810Z,59.13
2023-02-14T09:20:46.489Z,56.50
2023-02-14T09:23:14.116Z,55.90
2023-02-14T09:25:44.089Z,56.73
2023-02-14T09:28:11.903Z,60.27
2023-02-14T09:30:39.655Z,54.70
2023-02-14T09:33:07.317Z,52.13
2023-02-14T09:35:34.915Z,56.03
2023-02-14T09:38:21.002Z,57.47
2023-02-14T09:40:50.321Z,56.73
2023-02-14T09:43:33.185Z,58.70
2023-02-14T09:46:05.180Z,56.07
2023-02-14T09:48:37.402Z,51.97
2023-02-14T09:51:13.984Z,55.33
2023-02-14T09:53:51.440Z,58.47
2023-02-14T09:56:50.552Z,52.17
2023-02-14T09:59:34.323Z,55.57
2023-02-14T10:02:29.648Z,46.20
2023-02-14T10:05:13.256Z,43.83
2023-02-14T10:08:07.516Z,46.90
2023-02-14T10:10:41.785Z,48.07
2023-02-14T10:13:27.304Z,43.90
2023-02-14T10:16:03.606Z,44.53
2023-02-14T10:18:42.533Z,45.63
2023-02-14T10:21:16.803Z,37.43
2023-02-14T10:23:52.925Z,38.50
2023-02-14T10:26:41.585Z,36.53
2023-02-14T10:29:18.851Z,35.93
2023-02-14T10:32:04.476Z,37.47
2023-02-14T10:34:56.770Z,38.03
2023-02-14T10:38:02.741Z,34.00
2023-02-14T10:41:02.155Z,37.03
2023-02-14T10:44:13.626Z,39.77
2023-02-14T10:46:53.798Z,37.13
2023-02-14T10:49:36.580Z,38.90
2023-02-14T10:52:26.708Z,39.77
2023-02-14T10:55:01.337Z,39.07
2023-02-14T10:57:34.850Z,39.73
2023-02-14T11:00:10.868Z,40.63
2023-02-14T11:02:44.988Z,38.83
2023-02-14T11:05:38.387Z,44.03
2023-02-14T11:08:15.797Z,44.27
2023-02-14T11:10:43.636Z,38.97
2023-02-14T11:13:37.562Z,43.63
2023-02-14T11:16:10.529Z,42.97
2023-02-14T11:18:42.385Z,44.37
2023-02-14T11:21:14.166Z,47.67
2023-02-14T11:23:46.887Z,47.90
2023-02-14T11:26:28.907Z,46.77
2023-02-14T11:29:03.166Z,42.97
2023-02-14T11:31:37.812Z,43.53
2023-02-14T11:34:33.433Z,42.00
2023-02-14T11:37:01.213Z,40.53
2023-02-14T11:39:33.249Z,45.20
2023-02-14T11:42:04.507Z,44.57
2023-02-14T11:44:36.845Z,45.83
2023-02-14T11:47:27.415Z,44.77
2023-02-14T11:49:57.976Z,49.10
2023-02-14T11:52:29.896Z,47.73
2023-02-14T11:54:58.596Z,48.17
2023-02-14T11:57:39.505Z,46.27
2023-02-14T12:00:19.556Z,49.63
2023-02-14T12:02:53.043Z,47.77
2023-02-14T12:05:27.985Z,46.93
2023-02-14T12:08:04.985Z,49.20
2023-02-14T12:10:37.348Z,45.90
2023-02-14T12:13:23.969Z,51.50
2023-02-14T12:15:56.881Z,48.57
2023-02-14T12:18:52.934Z,48.03
2023-02-14T12:21:26.838Z,53.90
2023-02-14T12:24:06.366Z,50.73
2023-02-14T12:26:38.337Z,50.37
2023-02-14T12:29:19.081Z,48.20
2023-02-14T12:31:49.346Z,48.30
2023-02-14T12:34:18.573Z,54.30
2023-02-14T12:37:08.939Z,47.80
2023-02-14T12:40:07.477Z,46.77
2023-02-14T12:42:56.542Z,51.60
2023-02-14T12:45:48.657Z,47.93
2023-02-14T12:48:30.322Z,50.17
2023-02-14T12:51:23.906Z,50.33
2023-02-14T12:54:01.680Z,51.73
2023-02-14T12:57:13.005Z,50.53
2023-02-14T13:00:22.207Z,50.30
2023-02-14T13:03:20.716Z,49.50
2023-02-14T13:06:06.939Z,56.40
2023-02-14T13:08:43.015Z,54.20
2023-02-14T13:11:16.774Z,51.23
2023-02-14T13:13:46.992Z,53.33
2023-02-14T13:16:33.549Z,57.83
2023-02-14T13:19:22.823Z,53.23
2023-02-14T13:21:51.225Z,52.50
2023-02-14T13:24:29.489Z,51.47
2023-02-14T13:27:01.567Z,50.90
2023-02-14T13:29:43.505Z,47.27
2023-02-14T13:32:15.282Z,48.87
2023-02-14T13:34:46.618Z,52.20
2023-02-14T13:37:18.575Z,51.03
2023-02-14T13:39:51.366Z,49.17
2023-02-14T13:42:47.794Z,51.47
2023-02-14T13:45:35.882Z,50.73
2023-02-14T13:48:18.382Z,46.37
2023-02-14T13:51:07.288Z,48.03
2023-02-14T13:53:36.469Z,52.63
2023-02-14T13:56:13.279Z,49.43
2023-02-14T13:58:52.557Z,52.80
2023-02-14T14:01:35.878Z,56.63
2023-02-14T14:04:22.162Z,55.93
2023-02-14T14:07:05.090Z,56.93
2023-02-14T14:09:45.505Z,53.57
2023-02-14T14:12:28.332Z,56.80
2023-02-14T14:15:05.485Z,58.63
2023-02-14T14:17:34.352Z,56.63
2023-02-14T14:20:23.141Z,54.20
2023-02-14T14:23:01.260Z,57.57
2023-02-14T14:25:37.867Z,54.50
2023-02-14T14:28:13.411Z,56.17
2023-02-14T14:30:44.782Z,56.10
2023-02-14T14:33:22.890Z,60.77
2023-02-14T14:36:21.489Z,58.77
2023-02-14T14:38:52.286Z,52.67
2023-02-14T14:41:27.079Z,57.07
2023-02-14T14:43:55.167Z,59.50
2023-02-14T14:46:23.701Z,55.77
2023-02-14T14:48:54.987Z,58.37
2023-02-14T14:51:34.071Z,57.47
2023-02-14T14:54:17.990Z,54.17
2023-02-14T14:56:59.365Z,53.60
2023-02-14T14:59:35.419Z,58.40
2023-02-14T15:02:26.547Z,56.00
2023-02-14T15:04:54.631Z,57.03
2023-02-14T15:07:34.281Z,55.93
2023-02-14T15:10:02.311Z,54.90
2023-02-14T15:12:49.048Z,54.60
2023-02-14T15:15:18.365Z,56.70
2023-02-14T15:17:46.732Z,56.10
2023-02-14T15:20:21.114Z,54.57
2023-02-14T15:22:51.637Z,54.70
2023-02-14T15:25:35.745Z,55.87
2023-02-14T15:28:03.943Z,54.60
2023-02-14T15:30:37.714Z,52.00
2023-02-14T15:33:13.200Z,53.00
2023-02-14T15:35:42.366Z,51.73
2023-02-14T15:38:11.586Z,52.47
2023-02-14T15:40:40.353Z,53.97
2023-02-14T15:43:14.034Z,50.77
2023-02-14T15:45:45.690Z,46.90
2023-02-14T15:48:18.060Z,53.10
2023-02-14T15:50:52.690Z,49.67
2023-02-14T15:53:20.267Z,51.73
2023-02-14T15:55:50.348Z,50.53
2023-02-14T15:58:29.354Z,50.33
2023-02-14T16:00:57.031Z,47.77
2023-02-14T16:03:27.978Z,44.40
2023-02-14T16:05:55.824Z,48.13
2023-02-14T16:08:36.970Z,47.53
2023-02-14T16:11:27.468Z,46.67
2023-02-14T16:13:55.258Z,46.43
2023-02-14T16:16:22.929Z,48.53
2023-02-14T16:18:56.565Z,47.03
2023-02-14T16:21:24.207Z,45.00
2023-02-14T16:24:07.102Z,43.80
2023-02-14T16:26:44.929Z,47.37
2023-02-14T16:29:15.830Z,44.03
2023-02-14T16:32:12.089Z,47.53
2023-02-14T16:34:37.162Z,45.40
2023-02-14T16:37:24.496Z,45.40
2023-02-14T16:39:54.648Z,50.70
2023-02-14T16:42:22.281Z,48.53
2023-02-14T16:44:50.686Z,48.00
2023-02-14T16:47:20.823Z,55.27
2023-02-14T16:49:50.583Z,49.10
2023-02-14T16:52:23.775Z,50.30
2023-02-14T16:54:52.242Z,47.77
2023-02-14T16:57:47.497Z,52.97
2023-02-14T17:00:15.693Z,49.63
2023-02-14T17:02:44.329Z,50.73
2023-02-14T17:05:12.319Z,52.20
2023-02-14T17:07:46.184Z,48.37
2023-02-14T17:10:19.398Z,49.53
2023-02-14T17:12:48.732Z,51.47
2023-02-14T17:15:19.781Z,52.33
2023-02-14T17:17:49.890Z,54.87
2023-02-14T17:20:20.047Z,54.37
2023-02-14T17:22:48.059Z,50.90
2023-02-14T17:25:16.933Z,50.57
2023-02-14T17:27:46.310Z,48.60
2023-02-14T17:30:14.833Z,46.50
2023-02-14T17:32:42.923Z,49.63
2023-02-14T17:35:10.848Z,50.57
2023-02-14T17:37:38.432Z,51.10
2023-02-14T17:40:06.907Z,46.37
2023-02-14T17:42:36.693Z,49.13
2023-02-14T17:45:06.443Z,46.90
2023-02-14T17:47:34.844Z,50.23
2023-02-14T17:50:03.952Z,46.13
2023-02-14T17:52:32.125Z,48.03
2023-02-14T17:55:00.164Z,50.63
2023-02-14T17:57:27.895Z,47.60
2023-02-14T17:59:55.552Z,43.40
2023-02-14T18:02:23.213Z,45.93
2023-02-14T18:04:50.860Z,45.13
2023-02-14T18:07:18.518Z,47.83
2023-02-14T18:09:46.313Z,47.17
2023-02-14T18:12:15.185Z,45.90
2023-02-14T18:14:42.961Z,43.37
2023-02-14T18:17:13.179Z,42.60
2023-02-14T18:19:40.815Z,41.83
2023-02-14T18:22:08.380Z,42.60
2023-02-14T18:24:39.100Z,44.73
2023-02-14T18:27:06.719Z,48.30
2023-02-14T18:29:35.775Z,49.23
2023-02-14T18:32:04.766Z,45.47
2023-02-14T18:34:35.431Z,48.47
2023-02-14T18:37:04.341Z,51.13
2023-02-14T18:39:32.689Z,48.83
2023-02-14T18:42:01.099Z,46.93
2023-02-14T18:44:29.223Z,46.47
2023-02-14T18:46:57.199Z,48.27
2023-02-14T18:49:24.840Z,42.70
2023-02-14T18:51:52.470Z,47.27
2023-02-14T18:54:20.050Z,44.50
2023-02-14T18:56:47.794Z,46.87
2023-02-14T18:59:16.584Z,48.33
2023-02-14T19:01:45.692Z,47.83
2023-02-14T19:04:13.632Z,46.37
2023-02-14T19:06:42.423Z,48.87
2023-02-14T19:09:12.460Z,46.47
2023-02-14T19:11:40.410Z,53.77
2023-02-14T19:14:13.317Z,49.60
2023-02-14T19:16:49.956Z,47.43
2023-02-14T19:19:18.247Z,50.47
2023-02-14T19:21:46.087Z,46.87
2023-02-14T19:24:16.414Z,46.40
2023-02-14T19:26:44.035Z,50.37
2023-02-14T19:29:20.106Z,46.80
2023-02-14T19:31:49.912Z,48.63
2023-02-14T19:34:22.850Z,47.67
2023-02-14T19:36:52.630Z,43.27
2023-02-14T19:39:21.319Z,45.27
2023-02-14T19:41:49.290Z,47.47
2023-02-14T19:44:25.049Z,45.73
2023-02-14T19:46:54.395Z,46.23
2023-02-14T19:49:22.116Z,47.00
2023-02-14T19:51:51.349Z,52.87
2023-02-14T19:54:19.673Z,47.20
2023-02-14T19:56:47.616Z,46.27
2023-02-14T19:59:22.778Z,49.17
2023-02-14T20:01:53.217Z,51.27
2023-02-14T20:04:29.252Z,49.63
2023-02-14T20:06:57.491Z,49.03
2023-02-14T20:09:25.788Z,50.07
2023-02-14T20:11:55.880Z,50.40
2023-02-14T20:14:29.555Z,53.33
2023-02-14T20:16:59.067Z,52.03
2023-02-14T20:19:29.362Z,50.13
2023-02-14T20:22:00.033Z,52.00
2023-02-14T20:24:32.331Z,54.13
2023-02-14T20:27:00.504Z,53.67
2023-02-14T20:29:28.452Z,53.87
2023-02-14T20:32:03.583Z,55.37
2023-02-14T20:34:31.261Z,56.30
2023-02-14T20:37:00.275Z,54.90
2023-02-14T20:39:31.373Z,54.27
2023-02-14T20:42:00.901Z,51.30
2023-02-14T20:44:29.303Z,54.53
2023-02-14T20:46:57.504Z,52.73
2023-02-14T20:49:26.668Z,52.10
2023-02-14T20:51:54.874Z,56.53
2023-02-14T20:54:24.558Z,59.43
2023-02-14T20:56:52.760Z,61.47
2023-02-14T20:59:27.248Z,53.53
2023-02-14T21:01:59.214Z,56.90
2023-02-14T21:04:27.794Z,56.87
2023-02-14T21:06:57.894Z,59.57
2023-02-14T21:09:25.719Z,58.63
2023-02-14T21:11:53.959Z,56.83
2023-02-14T21:14:21.906Z,58.77
2023-02-14T21:16:52.231Z,58.30
2023-02-14T21:19:19.989Z,56.53
2023-02-14T21:21:47.643Z,59.27
2023-02-14T21:24:16.122Z,59.83
2023-02-14T21:26:44.572Z,57.13
2023-02-14T21:29:12.213Z,53.67
2023-02-14T21:31:40.137Z,55.80
2023-02-14T21:34:08.037Z,58.37
2023-02-14T21:36:35.985Z,57.43
2023-02-14T21:39:06.779Z,58.97
2023-02-14T21:41:35.587Z,55.50
2023-02-14T21:44:04.510Z,58.53
2023-02-14T21:46:35.827Z,57.73
2023-02-14T21:49:24.190Z,58.90
2023-02-14T21:51:52.140Z,58.93
2023-02-14T21:54:19.738Z,59.03
2023-02-14T21:56:49.231Z,57.10
2023-02-14T21:59:16.925Z,56.13
2023-02-14T22:01:44.750Z,52.77
2023-02-14T22:04:13.041Z,54.13
2023-02-14T22:06:42.322Z,53.20
2023-02-14T22:09:12.572Z,55.47
2023-02-14T22:11:40.619Z,58.33
2023-02-14T22:14:08.425Z,55.77
2023-02-14T22:16:39.201Z,60.20
2023-02-14T22:19:08.462Z,62.53
2023-02-14T22:21:36.390Z,56.83
2023-02-14T22:24:04.436Z,58.00
2023-02-14T22:26:38.587Z,56.23
2023-02-14T22:29:07.614Z,54.27
2023-02-14T22:31:40.576Z,56.77
2023-02-14T22:34:10.404Z,61.10
2023-02-14T22:36:38.190Z,58.40
2023-02-14T22:39:06.508Z,61.83
2023-02-14T22:41:37.696Z,63.60
2023-02-14T22:44:06.236Z,58.57
2023-02-14T22:46:36.660Z,57.00
2023-02-14T22:49:05.369Z,59.33
2023-02-14T22:51:38.105Z,54.37
2023-02-14T22:54:14.755Z,58.13
2023-02-14T22:56:47.660Z,56.57
2023-02-14T22:59:24.787Z,57.50
2023-02-14T23:01:55.806Z,54.73
2023-02-14T23:04:26.986Z,59.13
2023-02-14T23:06:54.953Z,55.23
2023-02-14T23:09:23.990Z,53.30
2023-02-14T23:11:52.107Z,54.90
2023-02-14T23:14:38.976Z,58.40
2023-02-14T23:17:16.140Z,54.17
2023-02-14T23:20:03.168Z,55.70
2023-02-14T23:22:36.137Z,60.20
2023-02-14T23:25:09.348Z,56.73
2023-02-14T23:27:45.068Z,57.57
2023-02-14T23:30:15.846Z,57.17
2023-02-14T23:32:43.703Z,57.63
2023-02-14T23:35:14.642Z,58.27
2023-02-14T23:37:42.323Z,58.57
2023-02-14T23:40:10.387Z,52.93
2023-02-14T23:42:38.243Z,53.87
2023-02-14T23:45:25.148Z,51.40
2023-02-14T23:47:52.798Z,52.07
2023-02-14T23:50:20.502Z,56.57
2023-02-14T23:52:50.894Z,56.07
2023-02-14T23:55:18.497Z,57.53
2023-02-14T23:57:48.397Z,58.83
